createdAt,value
2022-09-17T00:00:17.597Z,16.16
2022-09-17T00:02:56.134Z,16.19
2022-09-17T00:05:29.107Z,16.17
2022-09-17T00:08:02.258Z,16.16
2022-09-17T00:10:42.008Z,16.18
2022-09-17T00:13:16.702Z,16.21
2022-09-17T00:15:50.099Z,16.19
2022-09-17T00:18:22.863Z,16.13
2022-09-17T00:20:55.956Z,16.05
2022-09-17T00:23:28.711Z,16.04
2022-09-17T00:26:01.770Z,16.06
2022-09-17T00:28:34.997Z,16.14
2022-09-17T00:31:11.482Z,16.25
2022-09-17T00:33:44.508Z,16.35
2022-09-17T00:36:18.399Z,16.43
2022-09-17T00:38:56.331Z,16.50
2022-09-17T00:41:35.098Z,16.52
2022-09-17T00:44:49.297Z,16.58
2022-09-17T00:47:30.118Z,16.63
2022-09-17T00:50:22.790Z,16.63
2022-09-17T00:53:08.224Z,16.63
2022-09-17T00:56:02.066Z,16.64
2022-09-17T00:58:41.017Z,16.64
2022-09-17T01:01:10.853Z,16.69
2022-09-17T01:03:43.777Z,16.73
2022-09-17T01:06:33.752Z,16.74
2022-09-17T01:09:46.458Z,16.66
2022-09-17T01:12:58.592Z,16.54
2022-09-17T01:15:57.150Z,16.43
2022-09-17T01:19:12.359Z,16.33
2022-09-17T01:21:56.186Z,16.34
2022-09-17T01:25:07.001Z,16.38
2022-09-17T01:28:17.829Z,16.37
2022-09-17T01:31:05.254Z,16.44
2022-09-17T01:34:08.296Z,16.53
2022-09-17T01:36:58.526Z,16.60
2022-09-17T01:39:58.171Z,16.55
2022-09-17T01:43:07.757Z,16.48
2022-09-17T01:45:48.119Z,16.48
2022-09-17T01:48:24.587Z,16.46
2022-09-17T01:51:07.559Z,16.42
2022-09-17T01:54:05.872Z,16.35
2022-09-17T01:56:43.748Z,16.25
2022-09-17T01:59:21.975Z,16.16
2022-09-17T02:01:58.681Z,16.11
2022-09-17T02:04:35.320Z,16.08
2022-09-17T02:07:12.733Z,16.11
2022-09-17T02:09:54.759Z,16.20
2022-09-17T02:12:41.039Z,16.31
2022-09-17T02:15:21.803Z,16.37
2022-09-17T02:18:08.749Z,16.43
2022-09-17T02:20:52.204Z,16.48
2022-09-17T02:23:29.885Z,16.55
2022-09-17T02:26:09.099Z,16.54
2022-09-17T02:29:09.471Z,16.42
2022-09-17T02:31:48.729Z,16.31
2022-09-17T02:34:22.856Z,16.28
2022-09-17T02:36:59.822Z,16.31
2022-09-17T02:39:33.750Z,16.39
2022-09-17T02:42:35.496Z,16.43
2022-09-17T02:45:18.836Z,16.50
2022-09-17T02:48:31.096Z,16.58
2022-09-17T02:51:20.503Z,16.59
2022-09-17T02:54:21.915Z,16.61
2022-09-17T02:57:09.143Z,16.61
2022-09-17T02:59:52.837Z,16.62
2022-09-17T03:02:32.503Z,16.59
2022-09-17T03:05:06.807Z,16.58
2022-09-17T03:07:41.652Z,16.57
2022-09-17T03:10:14.902Z,16.59
2022-09-17T03:12:48.861Z,16.62
2022-09-17T03:15:21.717Z,16.66
2022-09-17T03:17:56.441Z,16.67
2022-09-17T03:20:29.634Z,16.70
2022-09-17T03:23:03.359Z,16.74
2022-09-17T03:25:36.739Z,16.68
2022-09-17T03:28:09.944Z,16.63
2022-09-17T03:30:45.148Z,16.62
2022-09-17T03:33:18.084Z,16.57
2022-09-17T03:35:51.227Z,16.60
2022-09-17T03:38:24.056Z,16.60
2022-09-17T03:41:07.746Z,16.55
2022-09-17T03:43:40.788Z,16.56
2022-09-17T03:46:14.141Z,16.61
2022-09-17T03:48:47.605Z,16.65
2022-09-17T03:51:21.121Z,16.69
2022-09-17T03:53:54.457Z,16.72
2022-09-17T03:56:27.234Z,16.77
2022-09-17T03:59:02.185Z,16.77
2022-09-17T04:01:36.594Z,16.76
2022-09-17T04:04:09.547Z,16.78
2022-09-17T04:06:42.673Z,16.80
2022-09-17T04:09:17.234Z,16.78
2022-09-17T04:11:50.063Z,16.77
2022-09-17T04:14:22.939Z,16.79
2022-09-17T04:16:56.308Z,16.82
2022-09-17T04:19:29.744Z,16.86
2022-09-17T04:22:02.575Z,16.89
2022-09-17T04:24:35.580Z,16.90
2022-09-17T04:27:08.416Z,16.89
2022-09-17T04:29:41.439Z,16.88
2022-09-17T04:32:14.525Z,16.93
2022-09-17T04:34:47.670Z,16.99
2022-09-17T04:37:20.458Z,17.03
2022-09-17T04:39:54.036Z,17.07
2022-09-17T04:42:26.894Z,17.11
2022-09-17T04:45:00.101Z,17.14
2022-09-17T04:47:33.050Z,17.14
2022-09-17T04:50:07.010Z,17.12
2022-09-17T04:52:44.676Z,17.13
2022-09-17T04:55:18.144Z,17.10
2022-09-17T04:57:53.217Z,17.07
2022-09-17T05:00:26.555Z,17.06
2022-09-17T05:03:01.149Z,17.08
2022-09-17T05:05:34.202Z,17.13
2022-09-17T05:08:08.702Z,17.21
2022-09-17T05:10:41.715Z,17.28
2022-09-17T05:13:14.975Z,17.30
2022-09-17T05:15:48.257Z,17.31
2022-09-17T05:18:21.020Z,17.33
2022-09-17T05:20:54.046Z,17.36
2022-09-17T05:23:26.690Z,17.40
2022-09-17T05:26:03.428Z,17.42
2022-09-17T05:28:36.935Z,17.39
2022-09-17T05:31:10.396Z,17.40
2022-09-17T05:33:43.283Z,17.48
2022-09-17T05:36:16.375Z,17.54
2022-09-17T05:38:49.248Z,17.57
2022-09-17T05:41:22.331Z,17.64
2022-09-17T05:43:55.243Z,17.70
2022-09-17T05:46:28.358Z,17.69
2022-09-17T05:49:01.117Z,17.70
2022-09-17T05:51:34.035Z,17.72
2022-09-17T05:54:07.349Z,17.71
2022-09-17T05:56:40.203Z,17.56
2022-09-17T05:59:13.080Z,17.56
2022-09-17T06:01:46.916Z,17.48
2022-09-17T06:04:20.064Z,17.38
2022-09-17T06:06:52.878Z,17.39
2022-09-17T06:09:26.965Z,17.45
2022-09-17T06:11:59.834Z,17.46
2022-09-17T06:14:33.560Z,17.46
2022-09-17T06:17:06.923Z,17.50
2022-09-17T06:19:40.003Z,17.51
2022-09-17T06:22:12.959Z,17.47
2022-09-17T06:24:45.941Z,17.48
2022-09-17T06:27:18.854Z,17.48
2022-09-17T06:29:51.964Z,17.42
2022-09-17T06:32:24.947Z,17.43
2022-09-17T06:34:58.327Z,17.47
2022-09-17T06:37:33.709Z,17.47
2022-09-17T06:40:09.657Z,17.44
2022-09-17T06:42:43.719Z,17.42
2022-09-17T06:45:17.150Z,17.49
2022-09-17T06:47:49.999Z,17.61
2022-09-17T06:50:23.411Z,17.71
2022-09-17T06:52:56.927Z,17.76
2022-09-17T06:55:29.797Z,17.81
2022-09-17T06:58:02.554Z,17.90
2022-09-17T07:00:36.625Z,17.98
2022-09-17T07:03:10.658Z,18.06
2022-09-17T07:05:47.323Z,18.17
2022-09-17T07:08:20.976Z,18.26
2022-09-17T07:10:59.179Z,18.36
2022-09-17T07:13:32.412Z,18.42
2022-09-17T07:16:07.608Z,18.47
2022-09-17T07:18:40.514Z,18.52
2022-09-17T07:21:13.728Z,18.56
2022-09-17T07:23:47.165Z,18.61
2022-09-17T07:26:20.209Z,18.67
2022-09-17T07:28:53.584Z,18.74
2022-09-17T07:31:28.895Z,18.76
2022-09-17T07:34:02.453Z,18.82
2022-09-17T07:36:36.774Z,18.91
2022-09-17T07:39:11.857Z,18.95
2022-09-17T07:41:47.033Z,19.01
2022-09-17T07:44:20.260Z,19.06
2022-09-17T07:46:54.456Z,19.11
2022-09-17T07:49:27.573Z,19.18
2022-09-17T07:52:02.008Z,19.20
2022-09-17T07:54:39.932Z,19.21
2022-09-17T07:57:13.352Z,19.26
2022-09-17T07:59:46.337Z,19.30
2022-09-17T08:02:24.085Z,19.35
2022-09-17T08:04:55.885Z,19.37
2022-09-17T08:07:29.005Z,19.39
2022-09-17T08:10:02.647Z,19.47
2022-09-17T08:12:36.040Z,19.55
2022-09-17T08:15:09.812Z,19.60
2022-09-17T08:17:47.551Z,19.65
2022-09-17T08:20:21.185Z,19.67
2022-09-17T08:23:02.091Z,19.68
2022-09-17T08:25:35.421Z,19.73
2022-09-17T08:28:08.633Z,19.76
2022-09-17T08:30:41.706Z,19.79
2022-09-17T08:33:14.405Z,19.81
2022-09-17T08:35:59.172Z,19.83
2022-09-17T08:38:38.295Z,19.84
2022-09-17T08:41:36.766Z,19.87
2022-09-17T08:44:23.782Z,19.90
2022-09-17T08:47:18.762Z,19.92
2022-09-17T08:49:59.044Z,19.94
2022-09-17T08:53:16.147Z,19.95
2022-09-17T08:56:14.042Z,20.00
2022-09-17T08:59:04.210Z,20.08
2022-09-17T09:02:04.467Z,20.12
2022-09-17T09:04:48.100Z,20.17
2022-09-17T09:07:28.231Z,20.20
2022-09-17T09:10:23.591Z,20.24
2022-09-17T09:12:59.184Z,20.29
2022-09-17T09:15:44.948Z,20.34
2022-09-17T09:18:27.803Z,20.38
2022-09-17T09:21:09.174Z,20.45
2022-09-17T09:23:59.288Z,20.49
2022-09-17T09:27:04.397Z,20.52
2022-09-17T09:29:50.679Z,20.55
2022-09-17T09:32:59.292Z,20.60
2022-09-17T09:35:35.685Z,20.64
2022-09-17T09:38:35.629Z,20.70
2022-09-17T09:41:19.768Z,20.76
2022-09-17T09:44:05.857Z,20.80
2022-09-17T09:47:04.368Z,20.85
2022-09-17T09:49:46.345Z,20.87
2022-09-17T09:52:47.368Z,20.92
2022-09-17T09:55:33.320Z,20.95
2022-09-17T09:58:29.125Z,21.01
2022-09-17T10:01:02.157Z,21.07
2022-09-17T10:03:36.517Z,21.13
2022-09-17T10:06:11.805Z,21.19
2022-09-17T10:08:55.100Z,21.24
2022-09-17T10:11:30.783Z,21.27
2022-09-17T10:14:31.272Z,21.31
2022-09-17T10:17:23.156Z,21.33
2022-09-17T10:20:10.862Z,21.38
2022-09-17T10:22:48.163Z,21.44
2022-09-17T10:25:28.945Z,21.50
2022-09-17T10:28:05.493Z,21.58
2022-09-17T10:30:38.330Z,21.65
2022-09-17T10:33:21.657Z,21.71
2022-09-17T10:36:06.516Z,21.76
2022-09-17T10:38:44.271Z,21.80
2022-09-17T10:41:24.959Z,21.85
2022-09-17T10:43:57.896Z,21.90
2022-09-17T10:46:34.296Z,21.94
2022-09-17T10:49:37.327Z,21.99
2022-09-17T10:52:26.413Z,22.04
2022-09-17T10:55:19.009Z,22.15
2022-09-17T10:58:11.660Z,22.22
2022-09-17T11:01:10.556Z,22.27
2022-09-17T11:04:14.866Z,22.37
2022-09-17T11:07:25.937Z,22.46
2022-09-17T11:10:24.840Z,22.57
2022-09-17T11:13:17.704Z,22.73
2022-09-17T11:16:29.883Z,22.87
2022-09-17T11:19:36.661Z,23.06
2022-09-17T11:22:28.554Z,23.06
2022-09-17T11:25:23.839Z,23.18
2022-09-17T11:28:38.991Z,23.27
2022-09-17T11:31:49.952Z,23.33
2022-09-17T11:34:29.903Z,23.36
2022-09-17T11:37:16.070Z,23.41
2022-09-17T11:40:06.628Z,23.48
2022-09-17T11:42:46.876Z,23.56
2022-09-17T11:45:38.631Z,23.62
2022-09-17T11:48:21.761Z,23.65
2022-09-17T11:51:28.182Z,23.67
2022-09-17T11:54:25.769Z,23.68
2022-09-17T11:57:12.323Z,23.68
2022-09-17T11:59:53.380Z,23.69
2022-09-17T12:02:46.048Z,23.73
2022-09-17T12:05:47.503Z,23.74
2022-09-17T12:08:43.988Z,23.75
2022-09-17T12:11:23.712Z,23.74
2022-09-17T12:14:00.817Z,23.70
2022-09-17T12:16:43.905Z,23.66
2022-09-17T12:19:44.443Z,23.62
2022-09-17T12:22:21.516Z,23.60
2022-09-17T12:24:55.227Z,23.59
2022-09-17T12:27:39.149Z,23.60
2022-09-17T12:30:23.175Z,23.62
2022-09-17T12:33:16.492Z,23.65
2022-09-17T12:36:14.122Z,23.71
2022-09-17T12:39:06.754Z,23.79
2022-09-17T12:41:58.351Z,23.88
2022-09-17T12:44:56.660Z,23.94
2022-09-17T12:47:52.280Z,23.96
2022-09-17T12:50:47.552Z,23.97
2022-09-17T12:53:45.019Z,23.95
2022-09-17T12:56:28.595Z,23.95
2022-09-17T12:59:20.981Z,23.96
2022-09-17T13:02:19.032Z,23.94
2022-09-17T13:05:07.889Z,23.91
2022-09-17T13:08:12.609Z,23.84
2022-09-17T13:11:00.462Z,23.81
2022-09-17T13:13:55.485Z,23.75
2022-09-17T13:16:39.167Z,23.71
2022-09-17T13:19:45.822Z,23.69
2022-09-17T13:22:29.177Z,23.65
2022-09-17T13:25:10.607Z,23.58
2022-09-17T13:27:44.799Z,23.53
2022-09-17T13:30:21.176Z,23.48
2022-09-17T13:32:55.329Z,23.44
2022-09-17T13:35:30.404Z,23.40
2022-09-17T13:38:03.562Z,23.39
2022-09-17T13:40:38.425Z,23.37
2022-09-17T13:43:15.447Z,23.38
2022-09-17T13:46:08.817Z,23.38
2022-09-17T13:48:49.462Z,23.38
2022-09-17T13:51:41.893Z,23.37
2022-09-17T13:54:16.573Z,23.38
2022-09-17T13:56:53.968Z,23.34
2022-09-17T13:59:28.841Z,23.31
2022-09-17T14:02:21.334Z,23.27
2022-09-17T14:05:19.913Z,23.24
2022-09-17T14:07:57.549Z,23.20
2022-09-17T14:10:38.230Z,23.15
2022-09-17T14:13:30.492Z,23.10
2022-09-17T14:16:04.043Z,23.07
2022-09-17T14:18:39.236Z,23.03
2022-09-17T14:21:28.946Z,22.99
2022-09-17T14:24:05.934Z,22.97
2022-09-17T14:27:12.541Z,22.94
2022-09-17T14:30:23.057Z,22.94
2022-09-17T14:33:19.047Z,22.94
2022-09-17T14:35:59.516Z,22.94
2022-09-17T14:38:41.333Z,22.94
2022-09-17T14:41:21.741Z,22.93
2022-09-17T14:44:07.404Z,22.89
2022-09-17T14:46:49.775Z,22.83
2022-09-17T14:49:32.173Z,22.75
2022-09-17T14:52:27.537Z,22.68
2022-09-17T14:55:26.835Z,22.59
2022-09-17T14:58:05.216Z,22.51
2022-09-17T15:00:39.804Z,22.38
2022-09-17T15:03:24.106Z,22.32
2022-09-17T15:05:57.596Z,22.25
2022-09-17T15:08:31.044Z,22.17
2022-09-17T15:11:12.064Z,22.09
2022-09-17T15:13:53.076Z,22.02
2022-09-17T15:16:30.013Z,21.90
2022-09-17T15:19:05.357Z,21.90
2022-09-17T15:21:49.496Z,21.76
2022-09-17T15:24:51.007Z,21.76
2022-09-17T15:27:39.311Z,21.72
2022-09-17T15:30:17.076Z,21.64
2022-09-17T15:32:58.996Z,21.58
2022-09-17T15:35:35.692Z,21.52
2022-09-17T15:38:29.267Z,21.46
2022-09-17T15:41:35.057Z,21.40
2022-09-17T15:44:30.805Z,21.32
2022-09-17T15:47:53.956Z,21.26
2022-09-17T15:50:36.241Z,21.20
2022-09-17T15:53:15.137Z,21.10
2022-09-17T15:55:50.504Z,21.05
2022-09-17T15:58:27.732Z,21.02
2022-09-17T16:01:20.232Z,21.01
2022-09-17T16:04:09.624Z,21.00
2022-09-17T16:06:55.892Z,20.99
2022-09-17T16:09:48.212Z,20.98
2022-09-17T16:12:24.390Z,20.95
2022-09-17T16:15:01.601Z,20.91
2022-09-17T16:17:44.422Z,20.88
2022-09-17T16:20:27.008Z,20.86
2022-09-17T16:23:00.386Z,20.84
2022-09-17T16:25:33.592Z,20.82
2022-09-17T16:28:16.152Z,20.81
2022-09-17T16:30:50.388Z,20.77
2022-09-17T16:33:23.352Z,20.74
2022-09-17T16:36:00.813Z,20.70
2022-09-17T16:38:35.566Z,20.68
2022-09-17T16:41:08.840Z,20.66
2022-09-17T16:43:41.478Z,20.64
2022-09-17T16:46:15.199Z,20.61
2022-09-17T16:48:51.918Z,20.59
2022-09-17T16:51:24.604Z,20.56
2022-09-17T16:53:58.440Z,20.54
2022-09-17T16:56:31.965Z,20.52
2022-09-17T16:59:04.685Z,20.50
2022-09-17T17:01:38.671Z,20.47
2022-09-17T17:04:11.515Z,20.44
2022-09-17T17:06:44.701Z,20.41
2022-09-17T17:09:17.473Z,20.39
2022-09-17T17:11:52.207Z,20.35
2022-09-17T17:14:25.708Z,20.33
2022-09-17T17:16:59.092Z,20.31
2022-09-17T17:19:32.238Z,20.27
2022-09-17T17:22:07.309Z,20.24
2022-09-17T17:24:42.018Z,20.22
2022-09-17T17:27:15.738Z,20.20
2022-09-17T17:29:48.754Z,20.19
2022-09-17T17:32:22.303Z,20.17
2022-09-17T17:34:55.249Z,20.14
2022-09-17T17:37:28.765Z,20.12
2022-09-17T17:40:04.063Z,20.07
2022-09-17T17:42:39.127Z,20.01
2022-09-17T17:45:12.987Z,19.98
2022-09-17T17:47:46.572Z,19.95
2022-09-17T17:50:19.944Z,19.92
2022-09-17T17:52:57.694Z,19.88
2022-09-17T17:55:30.649Z,19.85
2022-09-17T17:58:03.649Z,19.82
2022-09-17T18:00:36.593Z,19.81
2022-09-17T18:03:11.659Z,19.78
2022-09-17T18:05:45.315Z,19.76
2022-09-17T18:08:20.029Z,19.75
2022-09-17T18:10:57.897Z,19.73
2022-09-17T18:13:32.575Z,19.72
2022-09-17T18:16:07.874Z,19.69
2022-09-17T18:18:45.264Z,19.70
2022-09-17T18:21:22.133Z,19.69
2022-09-17T18:23:55.783Z,19.67
2022-09-17T18:26:30.078Z,19.66
2022-09-17T18:29:07.624Z,19.64
2022-09-17T18:31:38.286Z,19.64
2022-09-17T18:34:14.984Z,19.63
2022-09-17T18:36:51.212Z,19.64
2022-09-17T18:41:58.455Z,19.69
2022-09-17T18:44:31.367Z,19.68
2022-09-17T18:47:05.235Z,19.69
2022-09-17T18:49:38.445Z,19.70
2022-09-17T18:52:12.101Z,19.70
2022-09-17T18:54:46.353Z,19.73
2022-09-17T18:57:18.451Z,19.76
2022-09-17T18:59:51.149Z,19.77
2022-09-17T19:02:24.336Z,19.77
2022-09-17T19:04:57.686Z,19.76
2022-09-17T19:07:31.138Z,19.78
2022-09-17T19:10:03.965Z,19.78
2022-09-17T19:12:36.673Z,19.78
2022-09-17T19:15:11.790Z,19.78
2022-09-17T19:17:46.390Z,19.77
2022-09-17T19:20:20.087Z,19.78
2022-09-17T19:22:54.019Z,19.78
2022-09-17T19:25:28.434Z,19.75
2022-09-17T19:28:01.575Z,19.73
2022-09-17T19:30:34.599Z,19.70
2022-09-17T19:33:07.641Z,19.70
2022-09-17T19:35:42.011Z,19.69
2022-09-17T19:38:15.065Z,19.67
2022-09-17T19:40:59.186Z,19.66
2022-09-17T19:43:32.611Z,19.64
2022-09-17T19:46:12.142Z,19.62
2022-09-17T19:48:53.958Z,19.61
2022-09-17T19:51:29.943Z,19.61
2022-09-17T19:54:02.687Z,19.61
2022-09-17T19:56:35.663Z,19.61
2022-09-17T19:59:08.482Z,19.59
2022-09-17T20:01:43.939Z,19.57
2022-09-17T20:04:18.301Z,19.54
2022-09-17T20:06:52.061Z,19.53
2022-09-17T20:09:24.793Z,19.52
2022-09-17T20:11:59.278Z,19.53
2022-09-17T20:14:32.786Z,19.54
2022-09-17T20:17:06.896Z,19.52
2022-09-17T20:19:39.807Z,19.52
2022-09-17T20:22:14.412Z,19.52
2022-09-17T20:24:50.945Z,19.52
2022-09-17T20:27:22.084Z,19.54
2022-09-17T20:29:55.795Z,19.55
2022-09-17T20:32:29.040Z,19.56
2022-09-17T20:35:02.364Z,19.55
2022-09-17T20:38:18.842Z,19.52
2022-09-17T20:40:31.305Z,19.50
2022-09-17T20:43:04.015Z,19.50
2022-09-17T20:45:36.769Z,19.49
2022-09-17T20:51:04.946Z,19.48
2022-09-17T20:53:39.335Z,19.46
2022-09-17T20:56:18.103Z,19.44
2022-09-17T20:59:03.449Z,19.43
2022-09-17T21:01:34.829Z,19.41
2022-09-17T21:04:09.915Z,19.42
2022-09-17T21:06:44.738Z,19.43
2022-09-17T21:09:17.766Z,19.45
2022-09-17T21:11:51.335Z,19.45
2022-09-17T21:14:26.919Z,19.47
2022-09-17T21:17:00.044Z,19.48
2022-09-17T21:19:32.982Z,19.46
2022-09-17T21:22:06.257Z,19.46
2022-09-17T21:24:39.187Z,19.48
2022-09-17T21:27:12.082Z,19.51
2022-09-17T21:29:44.918Z,19.54
2022-09-17T21:32:17.608Z,19.56
2022-09-17T21:34:51.162Z,19.59
2022-09-17T21:37:24.384Z,19.58
2022-09-17T21:39:57.488Z,19.57
2022-09-17T21:42:30.991Z,19.57
2022-09-17T21:45:04.214Z,19.58
2022-09-17T21:47:38.408Z,19.59
2022-09-17T21:50:11.443Z,19.61
2022-09-17T21:52:44.120Z,19.63
2022-09-17T21:55:17.132Z,19.64
2022-09-17T21:57:50.637Z,19.63
2022-09-17T22:00:25.909Z,19.62
2022-09-17T22:03:00.329Z,19.59
2022-09-17T22:05:36.913Z,19.59
2022-09-17T22:08:09.487Z,19.60
2022-09-17T22:10:42.678Z,19.61
2022-09-17T22:13:15.560Z,19.64
2022-09-17T22:15:58.239Z,19.64
2022-09-17T22:18:31.669Z,19.63
2022-09-17T22:21:21.323Z,19.64
2022-09-17T22:23:56.898Z,19.64
2022-09-17T22:26:32.994Z,19.65
2022-09-17T22:29:11.168Z,19.66
2022-09-17T22:31:45.059Z,19.66
2022-09-17T22:34:19.947Z,19.67
2022-09-17T22:36:53.238Z,19.67
2022-09-17T22:39:26.004Z,19.66
2022-09-17T22:41:58.769Z,19.64
2022-09-17T22:44:31.533Z,19.62
2022-09-17T22:47:04.742Z,19.63
2022-09-17T22:49:37.739Z,19.64
2022-09-17T22:52:10.549Z,19.65
2022-09-17T22:54:43.661Z,19.66
2022-09-17T22:57:16.493Z,19.66
2022-09-17T22:59:49.378Z,19.65
2022-09-17T23:02:22.357Z,19.64
2022-09-17T23:04:56.720Z,19.65
2022-09-17T23:07:29.943Z,19.63
2022-09-17T23:10:02.684Z,19.61
2022-09-17T23:12:35.682Z,19.60
2022-09-17T23:15:10.866Z,19.59
2022-09-17T23:17:44.873Z,19.58
2022-09-17T23:20:17.589Z,19.54
2022-09-17T23:22:50.519Z,19.51
2022-09-17T23:25:23.353Z,19.52
2022-09-17T23:27:57.666Z,19.52
2022-09-17T23:30:31.085Z,19.53
2022-09-17T23:33:04.159Z,19.54
2022-09-17T23:35:37.111Z,19.56
2022-09-17T23:38:09.985Z,19.56
2022-09-17T23:40:43.046Z,19.56
2022-09-17T23:43:16.111Z,19.57
2022-09-17T23:45:57.670Z,19.58
2022-09-17T23:48:30.631Z,19.59
2022-09-17T23:51:03.672Z,19.58
2022-09-17T23:53:38.054Z,19.58
2022-09-17T23:56:18.171Z,19.55
2022-09-17T23:58:52.098Z,19.54
